WSAP/QPG METAR and TAF weather

Enter ICAO airport designator
Station Type Date Time Source
WSAP METAR 2022/05/26 05:00 UTC NOAA

WSAP 260500Z 32005KT 9999 FEW020 BKN280 34/22 Q1009


Station Type Date Time Source
WSAP Decoded METAR 2022/05/26 05:00 UTC NOAA

Singapore / Paya Lebar, Singapore (WSAP) 01-22N 103-55E 32M
May 26, 2022 - 01:00 AM EDT / 2022.05.26 0500 UTC
Wind: from the NW (320 degrees) at 6 MPH (5 KT):0
Visibility: greater than 7 mile(s):0
Sky conditions: mostly cloudy
Temperature: 93 F (34 C)
Heat index: 100.0 F (37.8 C):1
Dew Point: 71 F (22 C)
Relative Humidity: 49%
Pressure (altimeter): 29.80 in. Hg (1009 hPa)
ob: WSAP 260500Z 32005KT 9999 FEW020 BKN280 34/22 Q1009
cycle: 5

Station Type Date Time Source
WSAP TAF 2022/05/25 18:09 UTC NOAA

TAF WSAP 251700Z 2518/2700 25007KT 9999 FEW015 SCT020

Example: see airport list